sensor_id;sensor_type;location;lat;lon;timestamp;pressure;altitude;pressure_sealevel;temperature;humidity
64679;BME280;51094;53.864;27.676;2023-02-23T00:01:50;99984.06;;;-7.54;59.77
64679;BME280;51094;53.864;27.676;2023-02-23T00:04:17;99991.66;;;-7.53;60.66
64679;BME280;51094;53.864;27.676;2023-02-23T00:06:44;99975.66;;;-7.53;60.39
64679;BME280;51094;53.864;27.676;2023-02-23T00:09:11;99985.72;;;-7.56;60.33
64679;BME280;51094;53.864;27.676;2023-02-23T00:11:49;99952.66;;;-7.73;60.92
64679;BME280;51094;53.864;27.676;2023-02-23T00:14:16;99903.38;;;-8.07;59.94
64679;BME280;51094;53.864;27.676;2023-02-23T00:16:42;99912.56;;;-8.11;60.01
64679;BME280;51094;53.864;27.676;2023-02-23T00:19:12;99885.44;;;-8.27;60.25
64679;BME280;51094;53.864;27.676;2023-02-23T00:21:40;99988.06;;;-7.68;59.87
64679;BME280;51094;53.864;27.676;2023-02-23T00:24:09;99991.53;;;-7.62;60.57
64679;BME280;51094;53.864;27.676;2023-02-23T00:26:38;99997.28;;;-7.71;60.88
64679;BME280;51094;53.864;27.676;2023-02-23T00:29:08;100005.72;;;-7.70;61.42
64679;BME280;51094;53.864;27.676;2023-02-23T00:31:34;100012.41;;;-7.74;60.94
64679;BME280;51094;53.864;27.676;2023-02-23T00:34:04;99993.66;;;-7.89;60.39
64679;BME280;51094;53.864;27.676;2023-02-23T00:36:33;100049.41;;;-7.74;60.72
64679;BME280;51094;53.864;27.676;2023-02-23T00:39:03;99880.00;;;-8.54;60.82
64679;BME280;51094;53.864;27.676;2023-02-23T00:41:44;99904.63;;;-8.40;60.86
64679;BME280;51094;53.864;27.676;2023-02-23T00:44:12;100027.53;;;-7.74;60.68
64679;BME280;51094;53.864;27.676;2023-02-23T00:46:41;100025.09;;;-7.69;60.52
64679;BME280;51094;53.864;27.676;2023-02-23T00:49:10;100032.59;;;-7.74;60.88
64679;BME280;51094;53.864;27.676;2023-02-23T00:51:40;99944.28;;;-8.28;60.99
64679;BME280;51094;53.864;27.676;2023-02-23T00:54:07;99952.03;;;-8.16;60.62
64679;BME280;51094;53.864;27.676;2023-02-23T00:56:34;100034.28;;;-7.74;59.91
64679;BME280;51094;53.864;27.676;2023-02-23T00:59:01;100015.63;;;-7.85;60.54
64679;BME280;51094;53.864;27.676;2023-02-23T01:01:27;99905.28;;;-8.50;60.51
64679;BME280;51094;53.864;27.676;2023-02-23T01:03:54;99984.25;;;-7.99;59.88
64679;BME280;51094;53.864;27.676;2023-02-23T01:06:22;100032.66;;;-7.71;61.48
64679;BME280;51094;53.864;27.676;2023-02-23T01:08:51;99991.63;;;-8.12;60.73
64679;BME280;51094;53.864;27.676;2023-02-23T01:11:25;100032.75;;;-7.64;61.02
64679;BME280;51094;53.864;27.676;2023-02-23T01:13:57;100031.06;;;-7.64;60.49
64679;BME280;51094;53.864;27.676;2023-02-23T01:16:29;100038.66;;;-7.62;60.88
64679;BME280;51094;53.864;27.676;2023-02-23T01:18:58;100031.09;;;-7.61;61.25
64679;BME280;51094;53.864;27.676;2023-02-23T01:21:28;100026.16;;;-7.55;61.67
64679;BME280;51094;53.864;27.676;2023-02-23T01:23:55;99855.53;;;-8.60;61.13
64679;BME280;51094;53.864;27.676;2023-02-23T01:26:28;99993.81;;;-7.80;60.90
64679;BME280;51094;53.864;27.676;2023-02-23T01:28:58;99974.84;;;-8.10;60.56
64679;BME280;51094;53.864;27.676;2023-02-23T01:31:27;99881.63;;;-8.58;61.04
64679;BME280;51094;53.864;27.676;2023-02-23T01:33:58;100031.03;;;-7.65;61.75
64679;BME280;51094;53.864;27.676;2023-02-23T01:36:28;100032.78;;;-7.61;61.53
64679;BME280;51094;53.864;27.676;2023-02-23T01:38:59;100005.53;;;-7.84;61.48
64679;BME280;51094;53.864;27.676;2023-02-23T01:41:28;99919.91;;;-8.27;61.37
64679;BME280;51094;53.864;27.676;2023-02-23T01:43:59;100018.53;;;-7.58;61.84
64679;BME280;51094;53.864;27.676;2023-02-23T01:46:30;99885.06;;;-8.53;61.28
64679;BME280;51094;53.864;27.676;2023-02-23T01:48:57;100036.91;;;-7.66;61.52
64679;BME280;51094;53.864;27.676;2023-02-23T01:51:27;100038.63;;;-7.65;61.27
64679;BME280;51094;53.864;27.676;2023-02-23T01:54:03;100040.25;;;-7.67;60.84
64679;BME280;51094;53.864;27.676;2023-02-23T01:56:36;99939.22;;;-8.29;61.24
64679;BME280;51094;53.864;27.676;2023-02-23T01:59:10;100024.03;;;-7.85;61.21
64679;BME280;51094;53.864;27.676;2023-02-23T02:01:38;100020.72;;;-7.81;62.58
64679;BME280;51094;53.864;27.676;2023-02-23T02:04:07;99939.94;;;-8.38;61.72
64679;BME280;51094;53.864;27.676;2023-02-23T02:06:35;100025.00;;;-7.75;62.06
64679;BME280;51094;53.864;27.676;2023-02-23T02:09:07;100031.34;;;-8.00;61.79
64679;BME280;51094;53.864;27.676;2023-02-23T02:11:36;99978.25;;;-8.06;62.59
64679;BME280;51094;53.864;27.676;2023-02-23T02:14:26;100030.84;;;-7.78;62.56
64679;BME280;51094;53.864;27.676;2023-02-23T02:42:32;99946.22;;;-8.64;62.77
64679;BME280;51094;53.864;27.676;2023-02-23T02:45:14;100061.72;;;-7.95;63.27
64679;BME280;51094;53.864;27.676;2023-02-23T02:48:00;100075.94;;;-8.00;62.98
64679;BME280;51094;53.864;27.676;2023-02-23T02:50:42;100060.78;;;-8.02;62.40
64679;BME280;51094;53.864;27.676;2023-02-23T02:53:17;100028.56;;;-8.15;63.36
64679;BME280;51094;53.864;27.676;2023-02-23T02:55:47;100013.31;;;-8.24;63.33
64679;BME280;51094;53.864;27.676;2023-02-23T02:58:15;100043.81;;;-8.09;62.70
64679;BME280;51094;53.864;27.676;2023-02-23T03:00:46;100014.09;;;-8.27;62.74
64679;BME280;51094;53.864;27.676;2023-02-23T03:03:39;100071.88;;;-7.92;62.47
64679;BME280;51094;53.864;27.676;2023-02-23T03:06:44;99973.31;;;-8.53;62.37
64679;BME280;51094;53.864;27.676;2023-02-23T03:09:45;99953.53;;;-8.80;62.53
64679;BME280;51094;53.864;27.676;2023-02-23T03:12:44;100049.63;;;-8.13;62.25
64679;BME280;51094;53.864;27.676;2023-02-23T03:15:44;99968.19;;;-8.57;62.87
64679;BME280;51094;53.864;27.676;2023-02-23T03:21:50;100063.13;;;-8.11;62.59
64679;BME280;51094;53.864;27.676;2023-02-23T03:24:43;100071.41;;;-8.18;62.11
64679;BME280;51094;53.864;27.676;2023-02-23T03:30:24;99985.59;;;-8.73;63.23
64679;BME280;51094;53.864;27.676;2023-02-23T03:33:19;100051.75;;;-8.39;62.99
64679;BME280;51094;53.864;27.676;2023-02-23T03:36:12;100007.47;;;-8.71;63.49
64679;BME280;51094;53.864;27.676;2023-02-23T03:42:16;100069.50;;;-8.34;64.08
64679;BME280;51094;53.864;27.676;2023-02-23T03:45:07;100096.50;;;-8.29;63.33
64679;BME280;51094;53.864;27.676;2023-02-23T03:47:56;100080.59;;;-8.23;63.30
64679;BME280;51094;53.864;27.676;2023-02-23T03:50:51;100075.66;;;-8.17;63.59
64679;BME280;51094;53.864;27.676;2023-02-23T03:53:46;100086.53;;;-8.20;63.73
64679;BME280;51094;53.864;27.676;2023-02-23T03:56:35;99905.81;;;-9.17;62.84
64679;BME280;51094;53.864;27.676;2023-02-23T03:59:27;100082.47;;;-8.12;63.51
64679;BME280;51094;53.864;27.676;2023-02-23T04:02:15;100083.25;;;-8.16;62.80
64679;BME280;51094;53.864;27.676;2023-02-23T04:05:07;100045.84;;;-8.41;63.09
64679;BME280;51094;53.864;27.676;2023-02-23T04:07:54;100076.50;;;-8.17;63.62
64679;BME280;51094;53.864;27.676;2023-02-23T04:10:49;100105.13;;;-8.15;63.83
64679;BME280;51094;53.864;27.676;2023-02-23T04:13:37;99989.09;;;-8.64;64.07
64679;BME280;51094;53.864;27.676;2023-02-23T04:16:07;100057.03;;;-8.25;63.15
64679;BME280;51094;53.864;27.676;2023-02-23T04:18:36;100086.69;;;-8.11;63.74
64679;BME280;51094;53.864;27.676;2023-02-23T04:21:05;100040.13;;;-8.29;63.20
64679;BME280;51094;53.864;27.676;2023-02-23T04:23:33;100064.75;;;-8.15;62.74
64679;BME280;51094;53.864;27.676;2023-02-23T04:26:00;100070.56;;;-8.19;63.40
64679;BME280;51094;53.864;27.676;2023-02-23T04:28:27;100085.66;;;-8.22;63.42
64679;BME280;51094;53.864;27.676;2023-02-23T04:30:54;100041.38;;;-8.54;63.11
64679;BME280;51094;53.864;27.676;2023-02-23T04:33:22;99941.91;;;-9.18;63.11
64679;BME280;51094;53.864;27.676;2023-02-23T04:35:54;99950.56;;;-9.04;63.51
64679;BME280;51094;53.864;27.676;2023-02-23T04:38:21;100070.53;;;-8.23;63.65
64679;BME280;51094;53.864;27.676;2023-02-23T04:40:49;100023.75;;;-8.54;64.07
64679;BME280;51094;53.864;27.676;2023-02-23T04:43:15;100024.38;;;-8.64;63.47
64679;BME280;51094;53.864;27.676;2023-02-23T04:45:43;100082.97;;;-8.34;63.41
64679;BME280;51094;53.864;27.676;2023-02-23T04:48:10;100083.00;;;-8.31;63.19
64679;BME280;51094;53.864;27.676;2023-02-23T04:50:37;100057.50;;;-8.46;64.11
64679;BME280;51094;53.864;27.676;2023-02-23T04:53:05;100076.22;;;-8.35;64.21
64679;BME280;51094;53.864;27.676;2023-02-23T04:55:32;100048.78;;;-8.63;63.98
64679;BME280;51094;53.864;27.676;2023-02-23T04:58:00;100028.16;;;-8.88;63.41
64679;BME280;51094;53.864;27.676;2023-02-23T05:00:28;100057.91;;;-8.71;64.14
64679;BME280;51094;53.864;27.676;2023-02-23T05:02:56;100070.91;;;-8.49;64.44
64679;BME280;51094;53.864;27.676;2023-02-23T05:05:23;99972.22;;;-9.15;63.32
64679;BME280;51094;53.864;27.676;2023-02-23T05:07:50;100046.19;;;-8.68;64.16
64679;BME280;51094;53.864;27.676;2023-02-23T05:10:16;100073.44;;;-8.49;63.84
64679;BME280;51094;53.864;27.676;2023-02-23T05:12:43;100029.13;;;-8.81;63.92
64679;BME280;51094;53.864;27.676;2023-02-23T05:15:10;100075.03;;;-8.54;64.27
64679;BME280;51094;53.864;27.676;2023-02-23T05:17:38;100070.09;;;-8.48;64.90
64679;BME280;51094;53.864;27.676;2023-02-23T05:20:08;99985.19;;;-8.94;64.69
64679;BME280;51094;53.864;27.676;2023-02-23T05:22:36;99875.63;;;-9.61;64.03
64679;BME280;51094;53.864;27.676;2023-02-23T05:25:04;100066.88;;;-8.41;63.65
64679;BME280;51094;53.864;27.676;2023-02-23T05:27:31;100057.22;;;-8.61;63.24
64679;BME280;51094;53.864;27.676;2023-02-23T05:29:59;100053.78;;;-8.66;63.67
64679;BME280;51094;53.864;27.676;2023-02-23T05:32:27;100067.59;;;-8.46;64.37
64679;BME280;51094;53.864;27.676;2023-02-23T05:34:54;100060.03;;;-8.46;63.80
64679;BME280;51094;53.864;27.676;2023-02-23T05:37:21;100062.66;;;-8.42;64.31
64679;BME280;51094;53.864;27.676;2023-02-23T05:39:47;100048.97;;;-8.53;63.73
64679;BME280;51094;53.864;27.676;2023-02-23T05:42:14;99952.69;;;-9.25;63.53
64679;BME280;51094;53.864;27.676;2023-02-23T05:44:41;100054.00;;;-8.54;64.31
64679;BME280;51094;53.864;27.676;2023-02-23T05:47:08;99642.09;;;-11.10;63.90
64679;BME280;51094;53.864;27.676;2023-02-23T05:49:36;100071.19;;;-8.32;64.35
64679;BME280;51094;53.864;27.676;2023-02-23T05:52:04;100046.50;;;-8.51;63.67
64679;BME280;51094;53.864;27.676;2023-02-23T05:54:31;100072.72;;;-8.42;64.23
64679;BME280;51094;53.864;27.676;2023-02-23T05:56:58;100082.66;;;-8.51;64.48
64679;BME280;51094;53.864;27.676;2023-02-23T05:59:27;99863.53;;;-9.77;64.45
64679;BME280;51094;53.864;27.676;2023-02-23T06:01:54;100084.47;;;-8.44;64.57
64679;BME280;51094;53.864;27.676;2023-02-23T06:04:21;100055.66;;;-8.55;64.07
64679;BME280;51094;53.864;27.676;2023-02-23T06:06:49;100059.31;;;-8.39;64.05
64679;BME280;51094;53.864;27.676;2023-02-23T06:09:16;100025.22;;;-8.67;63.03
64679;BME280;51094;53.864;27.676;2023-02-23T06:11:42;100088.06;;;-8.29;63.99
64679;BME280;51094;53.864;27.676;2023-02-23T06:14:10;100094.75;;;-8.31;64.37
64679;BME280;51094;53.864;27.676;2023-02-23T06:16:37;100097.44;;;-8.21;64.50
64679;BME280;51094;53.864;27.676;2023-02-23T06:19:04;100074.66;;;-8.27;64.56
64679;BME280;51094;53.864;27.676;2023-02-23T06:21:32;100096.84;;;-8.08;64.99
64679;BME280;51094;53.864;27.676;2023-02-23T06:23:59;100085.25;;;-7.96;64.09
64679;BME280;51094;53.864;27.676;2023-02-23T06:26:26;100004.41;;;-8.54;64.10
64679;BME280;51094;53.864;27.676;2023-02-23T06:28:54;100093.00;;;-7.87;64.66
64679;BME280;51094;53.864;27.676;2023-02-23T06:31:21;100029.16;;;-8.33;64.46
64679;BME280;51094;53.864;27.676;2023-02-23T06:33:48;100086.56;;;-7.68;64.52
64679;BME280;51094;53.864;27.676;2023-02-23T06:36:16;100088.44;;;-7.55;64.29
64679;BME280;51094;53.864;27.676;2023-02-23T06:38:43;100101.31;;;-7.40;64.98
64679;BME280;51094;53.864;27.676;2023-02-23T06:41:11;100058.97;;;-7.55;63.35
64679;BME280;51094;53.864;27.676;2023-02-23T06:43:38;100037.44;;;-7.89;63.76
64679;BME280;51094;53.864;27.676;2023-02-23T06:46:05;100039.88;;;-7.93;64.53
64679;BME280;51094;53.864;27.676;2023-02-23T06:48:31;100103.69;;;-7.49;64.08
64679;BME280;51094;53.864;27.676;2023-02-23T06:50:58;100115.44;;;-7.51;64.17
64679;BME280;51094;53.864;27.676;2023-02-23T06:53:26;100116.25;;;-7.54;65.15
64679;BME280;51094;53.864;27.676;2023-02-23T06:55:53;100026.88;;;-8.16;64.59
64679;BME280;51094;53.864;27.676;2023-02-23T06:58:19;100105.09;;;-7.66;65.22
64679;BME280;51094;53.864;27.676;2023-02-23T07:00:46;99929.75;;;-8.44;64.50
64679;BME280;51094;53.864;27.676;2023-02-23T07:03:14;100114.31;;;-7.14;64.93
64679;BME280;51094;53.864;27.676;2023-02-23T07:05:40;100117.00;;;-7.02;65.65
64679;BME280;51094;53.864;27.676;2023-02-23T07:08:07;100054.25;;;-7.32;65.12
64679;BME280;51094;53.864;27.676;2023-02-23T07:10:34;100036.63;;;-7.26;64.18
64679;BME280;51094;53.864;27.676;2023-02-23T07:13:01;100095.38;;;-6.79;64.24
64679;BME280;51094;53.864;27.676;2023-02-23T07:15:28;100022.38;;;-7.22;63.26
64679;BME280;51094;53.864;27.676;2023-02-23T07:17:55;100102.03;;;-6.85;63.59
64679;BME280;51094;53.864;27.676;2023-02-23T07:20:22;100105.22;;;-7.01;63.86
64679;BME280;51094;53.864;27.676;2023-02-23T07:22:49;100107.72;;;-7.03;63.44
64679;BME280;51094;53.864;27.676;2023-02-23T07:25:16;100081.44;;;-7.14;63.38
64679;BME280;51094;53.864;27.676;2023-02-23T07:27:43;100085.03;;;-7.00;63.73
64679;BME280;51094;53.864;27.676;2023-02-23T07:30:11;100001.94;;;-7.41;63.96
64679;BME280;51094;53.864;27.676;2023-02-23T07:32:39;100072.56;;;-6.83;63.82
64679;BME280;51094;53.864;27.676;2023-02-23T07:35:06;100073.56;;;-6.71;63.98
64679;BME280;51094;53.864;27.676;2023-02-23T07:37:33;100064.28;;;-6.70;63.25
64679;BME280;51094;53.864;27.676;2023-02-23T07:40:00;100102.53;;;-6.43;63.95
64679;BME280;51094;53.864;27.676;2023-02-23T07:42:27;100015.31;;;-6.77;62.95
64679;BME280;51094;53.864;27.676;2023-02-23T07:44:54;100039.34;;;-6.37;64.18
64679;BME280;51094;53.864;27.676;2023-02-23T07:47:21;100040.47;;;-6.07;62.54
64679;BME280;51094;53.864;27.676;2023-02-23T07:49:57;100044.72;;;-6.00;62.64
64679;BME280;51094;53.864;27.676;2023-02-23T07:52:24;100010.94;;;-6.07;62.04
64679;BME280;51094;53.864;27.676;2023-02-23T07:54:51;100041.56;;;-5.72;61.62
64679;BME280;51094;53.864;27.676;2023-02-23T07:57:18;100025.53;;;-5.69;61.44
64679;BME280;51094;53.864;27.676;2023-02-23T07:59:48;99916.25;;;-6.28;61.22
64679;BME280;51094;53.864;27.676;2023-02-23T08:02:15;100033.16;;;-5.66;60.54
64679;BME280;51094;53.864;27.676;2023-02-23T08:04:42;100073.00;;;-5.44;60.35
64679;BME280;51094;53.864;27.676;2023-02-23T08:07:09;100070.50;;;-5.36;60.80
64679;BME280;51094;53.864;27.676;2023-02-23T08:09:36;100047.69;;;-5.38;60.60
64679;BME280;51094;53.864;27.676;2023-02-23T08:12:04;100087.63;;;-4.98;60.71
64679;BME280;51094;53.864;27.676;2023-02-23T08:14:31;100078.34;;;-4.98;59.18
64679;BME280;51094;53.864;27.676;2023-02-23T08:16:58;99994.25;;;-5.73;58.43
64679;BME280;51094;53.864;27.676;2023-02-23T08:19:27;100086.56;;;-5.36;58.08
64679;BME280;51094;53.864;27.676;2023-02-23T08:21:54;100084.84;;;-5.43;57.52
64679;BME280;51094;53.864;27.676;2023-02-23T08:24:24;100081.34;;;-5.57;58.16
64679;BME280;51094;53.864;27.676;2023-02-23T08:26:52;100001.63;;;-6.06;58.99
64679;BME280;51094;53.864;27.676;2023-02-23T08:29:18;100065.28;;;-5.59;57.90
64679;BME280;51094;53.864;27.676;2023-02-23T08:31:47;100083.09;;;-5.50;58.27
64679;BME280;51094;53.864;27.676;2023-02-23T08:34:14;100079.91;;;-5.23;59.68
64679;BME280;51094;53.864;27.676;2023-02-23T08:36:41;100069.81;;;-5.06;59.41
64679;BME280;51094;53.864;27.676;2023-02-23T08:39:12;100075.03;;;-4.73;59.69
64679;BME280;51094;53.864;27.676;2023-02-23T08:41:39;99999.75;;;-4.83;59.13
64679;BME280;51094;53.864;27.676;2023-02-23T08:44:06;99922.72;;;-5.15;57.94
64679;BME280;51094;53.864;27.676;2023-02-23T08:46:33;99998.13;;;-4.50;57.79
64679;BME280;51094;53.864;27.676;2023-02-23T08:49:00;100031.19;;;-4.20;55.98
64679;BME280;51094;53.864;27.676;2023-02-23T08:51:27;99988.00;;;-4.37;55.32
64679;BME280;51094;53.864;27.676;2023-02-23T08:53:54;100021.03;;;-3.97;55.85
64679;BME280;51094;53.864;27.676;2023-02-23T08:56:22;100009.16;;;-3.84;53.17
64679;BME280;51094;53.864;27.676;2023-02-23T08:58:50;99962.56;;;-3.77;53.66
64679;BME280;51094;53.864;27.676;2023-02-23T09:01:19;100045.47;;;-3.06;53.02
64679;BME280;51094;53.864;27.676;2023-02-23T09:03:48;100020.88;;;-3.07;52.61
64679;BME280;51094;53.864;27.676;2023-02-23T09:06:18;99969.19;;;-3.14;52.45
64679;BME280;51094;53.864;27.676;2023-02-23T09:08:45;100046.06;;;-2.52;52.32
64679;BME280;51094;53.864;27.676;2023-02-23T09:11:11;100013.84;;;-2.59;49.96
64679;BME280;51094;53.864;27.676;2023-02-23T09:13:38;99994.53;;;-3.02;49.38
64679;BME280;51094;53.864;27.676;2023-02-23T09:16:05;100037.75;;;-2.88;50.53
64679;BME280;51094;53.864;27.676;2023-02-23T09:18:34;99978.53;;;-3.23;51.52
64679;BME280;51094;53.864;27.676;2023-02-23T09:21:04;100024.22;;;-2.99;50.93
64679;BME280;51094;53.864;27.676;2023-02-23T09:23:36;100037.78;;;-2.94;50.81
64679;BME280;51094;53.864;27.676;2023-02-23T09:26:07;99993.81;;;-3.32;50.78
64679;BME280;51094;53.864;27.676;2023-02-23T09:28:34;100029.38;;;-3.14;51.36
64679;BME280;51094;53.864;27.676;2023-02-23T09:31:10;100026.72;;;-2.84;52.29
64679;BME280;51094;53.864;27.676;2023-02-23T09:33:38;99903.06;;;-3.23;51.48
64679;BME280;51094;53.864;27.676;2023-02-23T09:36:10;100013.72;;;-2.35;52.31
64679;BME280;51094;53.864;27.676;2023-02-23T09:38:38;99858.06;;;-3.07;50.45
64679;BME280;51094;53.864;27.676;2023-02-23T09:49:21;100002.84;;;-1.53;51.14
64679;BME280;51094;53.864;27.676;2023-02-23T09:51:52;100007.03;;;-1.47;49.01
64679;BME280;51094;53.864;27.676;2023-02-23T09:54:26;99945.00;;;-1.51;48.65
64679;BME280;51094;53.864;27.676;2023-02-23T09:56:55;99959.81;;;-1.10;48.89
64679;BME280;51094;53.864;27.676;2023-02-23T09:59:24;99978.75;;;-0.61;48.57
64679;BME280;51094;53.864;27.676;2023-02-23T10:01:59;99990.31;;;-0.38;47.78
64679;BME280;51094;53.864;27.676;2023-02-23T10:10:24;99969.19;;;-0.47;44.95
64679;BME280;51094;53.864;27.676;2023-02-23T10:15:33;99965.50;;;-0.88;44.82
64679;BME280;51094;53.864;27.676;2023-02-23T10:18:27;99979.53;;;-0.56;45.07
64679;BME280;51094;53.864;27.676;2023-02-23T10:24:11;99954.69;;;-0.45;43.98
64679;BME280;51094;53.864;27.676;2023-02-23T10:26:43;99951.28;;;-0.44;43.47
64679;BME280;51094;53.864;27.676;2023-02-23T10:31:58;99948.50;;;0.19;43.02
64679;BME280;51094;53.864;27.676;2023-02-23T10:34:27;99940.88;;;0.16;41.88
64679;BME280;51094;53.864;27.676;2023-02-23T10:36:58;99953.22;;;0.42;41.51
64679;BME280;51094;53.864;27.676;2023-02-23T10:39:26;99871.88;;;0.14;41.53
64679;BME280;51094;53.864;27.676;2023-02-23T10:41:58;99920.28;;;0.68;40.89
64679;BME280;51094;53.864;27.676;2023-02-23T10:44:27;99929.69;;;1.08;39.67
64679;BME280;51094;53.864;27.676;2023-02-23T10:47:05;99925.09;;;1.23;40.59
64679;BME280;51094;53.864;27.676;2023-02-23T10:49:48;99921.88;;;1.86;40.79
64679;BME280;51094;53.864;27.676;2023-02-23T10:52:21;99906.25;;;1.95;39.68
64679;BME280;51094;53.864;27.676;2023-02-23T10:54:50;99922.53;;;2.27;39.67
64679;BME280;51094;53.864;27.676;2023-02-23T10:57:24;99912.25;;;2.59;39.49
64679;BME280;51094;53.864;27.676;2023-02-23T11:02:46;99929.94;;;3.27;39.35
64679;BME280;51094;53.864;27.676;2023-02-23T11:05:30;99905.78;;;3.33;36.67
64679;BME280;51094;53.864;27.676;2023-02-23T11:11:05;99852.81;;;2.13;37.90
64679;BME280;51094;53.864;27.676;2023-02-23T11:13:45;99823.66;;;2.15;38.43
64679;BME280;51094;53.864;27.676;2023-02-23T11:16:20;99927.72;;;2.58;37.64
64679;BME280;51094;53.864;27.676;2023-02-23T11:18:54;99895.38;;;2.51;37.79
64679;BME280;51094;53.864;27.676;2023-02-23T11:21:24;99814.31;;;1.80;37.67
64679;BME280;51094;53.864;27.676;2023-02-23T11:23:54;99909.31;;;2.10;37.94
64679;BME280;51094;53.864;27.676;2023-02-23T11:28:57;99895.53;;;1.46;38.79
64679;BME280;51094;53.864;27.676;2023-02-23T11:31:31;99825.97;;;0.88;40.20
64679;BME280;51094;53.864;27.676;2023-02-23T11:34:02;99895.63;;;1.41;40.54
64679;BME280;51094;53.864;27.676;2023-02-23T11:36:36;99858.97;;;1.38;40.30
64679;BME280;51094;53.864;27.676;2023-02-23T11:41:45;99872.03;;;1.28;40.36
64679;BME280;51094;53.864;27.676;2023-02-23T11:44:23;99889.19;;;1.60;40.96
64679;BME280;51094;53.864;27.676;2023-02-23T11:46:50;99862.25;;;1.44;39.48
64679;BME280;51094;53.864;27.676;2023-02-23T11:49:22;99859.44;;;1.19;39.96
64679;BME280;51094;53.864;27.676;2023-02-23T11:51:52;99861.91;;;1.22;39.91
64679;BME280;51094;53.864;27.676;2023-02-23T11:54:28;99901.75;;;0.97;39.73
64679;BME280;51094;53.864;27.676;2023-02-23T11:56:56;99830.72;;;0.26;40.06
64679;BME280;51094;53.864;27.676;2023-02-23T11:59:28;99872.31;;;0.36;40.84
64679;BME280;51094;53.864;27.676;2023-02-23T12:02:22;99842.75;;;0.21;41.10
64679;BME280;51094;53.864;27.676;2023-02-23T12:05:08;99883.88;;;0.11;40.94
64679;BME280;51094;53.864;27.676;2023-02-23T12:07:40;99871.97;;;-0.40;42.13
64679;BME280;51094;53.864;27.676;2023-02-23T12:10:21;99857.50;;;-0.41;42.43
64679;BME280;51094;53.864;27.676;2023-02-23T12:12:54;99775.78;;;-0.91;42.19
64679;BME280;51094;53.864;27.676;2023-02-23T12:15:29;99818.75;;;-0.65;42.85
64679;BME280;51094;53.864;27.676;2023-02-23T12:18:03;99848.97;;;-0.40;42.14
64679;BME280;51094;53.864;27.676;2023-02-23T12:20:40;99839.63;;;-0.42;42.96
64679;BME280;51094;53.864;27.676;2023-02-23T12:23:12;99830.28;;;-0.43;42.73
64679;BME280;51094;53.864;27.676;2023-02-23T12:25:56;99759.63;;;-0.92;42.89
64679;BME280;51094;53.864;27.676;2023-02-23T12:34:13;99780.97;;;-0.96;43.68
64679;BME280;51094;53.864;27.676;2023-02-23T12:36:48;99749.50;;;-0.98;44.08
64679;BME280;51094;53.864;27.676;2023-02-23T12:42:58;99813.78;;;-0.73;44.11
64679;BME280;51094;53.864;27.676;2023-02-23T12:45:31;99811.59;;;-0.96;45.13
64679;BME280;51094;53.864;27.676;2023-02-23T12:50:37;99809.94;;;-1.00;46.46
64679;BME280;51094;53.864;27.676;2023-02-23T12:53:16;99797.97;;;-0.95;46.50
64679;BME280;51094;53.864;27.676;2023-02-23T12:58:44;99808.75;;;-1.33;47.24
64679;BME280;51094;53.864;27.676;2023-02-23T13:07:21;99772.75;;;-1.16;46.88
64679;BME280;51094;53.864;27.676;2023-02-23T13:12:43;99773.78;;;-1.28;46.31
64679;BME280;51094;53.864;27.676;2023-02-23T13:15:14;99773.69;;;-1.23;46.58
64679;BME280;51094;53.864;27.676;2023-02-23T13:17:53;99497.94;;;-2.63;46.63
64679;BME280;51094;53.864;27.676;2023-02-23T13:20:23;99755.53;;;-1.02;46.30
64679;BME280;51094;53.864;27.676;2023-02-23T13:23:09;99753.03;;;-1.05;46.07
64679;BME280;51094;53.864;27.676;2023-02-23T13:25:47;99758.91;;;-1.00;45.79
64679;BME280;51094;53.864;27.676;2023-02-23T13:28:23;99738.13;;;-1.31;45.36
64679;BME280;51094;53.864;27.676;2023-02-23T13:30:53;99747.97;;;-1.08;44.72
64679;BME280;51094;53.864;27.676;2023-02-23T13:33:26;99779.53;;;-1.15;44.50
64679;BME280;51094;53.864;27.676;2023-02-23T13:36:09;99746.38;;;-1.15;44.39
64679;BME280;51094;53.864;27.676;2023-02-23T13:38:58;99719.34;;;-1.28;43.84
64679;BME280;51094;53.864;27.676;2023-02-23T13:42:02;99723.06;;;-0.94;44.17
64679;BME280;51094;53.864;27.676;2023-02-23T13:44:44;99700.81;;;-0.87;43.86
64679;BME280;51094;53.864;27.676;2023-02-23T13:50:16;99712.66;;;-0.85;42.86
64679;BME280;51094;53.864;27.676;2023-02-23T13:52:47;99699.22;;;-0.93;42.85
64679;BME280;51094;53.864;27.676;2023-02-23T13:58:05;99663.16;;;-1.24;42.81
64679;BME280;51094;53.864;27.676;2023-02-23T14:00:37;99668.22;;;-1.22;43.54
64679;BME280;51094;53.864;27.676;2023-02-23T14:03:05;99628.50;;;-1.36;43.37
64679;BME280;51094;53.864;27.676;2023-02-23T14:05:41;99706.97;;;-0.99;42.60
64679;BME280;51094;53.864;27.676;2023-02-23T14:08:33;99697.63;;;-1.00;42.18
64679;BME280;51094;53.864;27.676;2023-02-23T14:11:02;99667.09;;;-1.05;42.65
64679;BME280;51094;53.864;27.676;2023-02-23T14:13:33;99596.19;;;-1.37;42.35
64679;BME280;51094;53.864;27.676;2023-02-23T14:16:09;99680.44;;;-0.89;41.92
64679;BME280;51094;53.864;27.676;2023-02-23T14:21:41;99631.69;;;-1.24;41.83
64679;BME280;51094;53.864;27.676;2023-02-23T14:24:18;99606.84;;;-1.64;42.86
64679;BME280;51094;53.864;27.676;2023-02-23T14:29:42;99621.00;;;-2.02;43.58
64679;BME280;51094;53.864;27.676;2023-02-23T14:35:00;99551.03;;;-2.38;44.77
64679;BME280;51094;53.864;27.676;2023-02-23T14:37:34;99643.22;;;-2.11;44.85
64679;BME280;51094;53.864;27.676;2023-02-23T14:42:40;99587.28;;;-2.17;45.94
64679;BME280;51094;53.864;27.676;2023-02-23T14:45:21;99634.34;;;-1.83;46.19
64679;BME280;51094;53.864;27.676;2023-02-23T14:47:55;99627.81;;;-2.04;46.31
64679;BME280;51094;53.864;27.676;2023-02-23T14:50:42;99580.88;;;-2.49;46.07
64679;BME280;51094;53.864;27.676;2023-02-23T14:53:21;99619.94;;;-2.50;46.86
64679;BME280;51094;53.864;27.676;2023-02-23T14:55:49;99604.59;;;-2.45;47.60
64679;BME280;51094;53.864;27.676;2023-02-23T14:58:27;99628.25;;;-2.34;48.06
64679;BME280;51094;53.864;27.676;2023-02-23T15:00:54;99604.31;;;-2.21;47.91